Time;durP1;ratioP1;P1;durP2;ratioP2;P2;SDS_P1;SDS_P2;PMS_P1;PMS_P2;Temp;Humidity;BMP_temperature;BMP_pressure;BME280_temperature;BME280_humidity;BME280_pressure;Samples;Min_cycle;Max_cycle;Signal;HPM_P1;HPM_P2
2023/07/12 00:01:35;;;;;;;8.45;6.88;;;;;;;22.66;100.00;99530.94;6125573;29;20092;-96
2023/07/12 00:04:40;;;;;;;9.98;7.38;;;;;;;22.76;100.00;99528.56;6141872;29;20047;-96
2023/07/12 00:07:47;;;;;;;11.82;7.25;;;;;;;22.80;100.00;99523.63;6123936;29;20110;-96
2023/07/12 00:10:51;;;;;;;8.30;7.32;;;;;;;22.80;100.00;99518.34;6131694;29;20478;-96
2023/07/12 00:14:10;;;;;;;10.30;7.30;;;;;;;22.84;100.00;99521.38;6130448;29;20039;-96
2023/07/12 00:17:28;;;;;;;9.60;7.10;;;;;;;22.84;100.00;99513.44;6124977;29;20044;-96
2023/07/12 00:20:37;;;;;;;9.82;7.78;;;;;;;22.84;100.00;99506.31;6128064;29;20459;-96
2023/07/12 00:24:00;;;;;;;;;;;;;;;22.76;100.00;99504.81;6463364;23;20067;-96
2023/07/12 00:27:34;;;;;;;9.65;7.50;;;;;;;22.69;100.00;99505.97;6127645;29;19951;-96
2023/07/12 00:30:43;;;;;;;9.02;7.15;;;;;;;22.64;100.00;99511.09;6134244;29;20426;-96
2023/07/12 00:34:03;;;;;;;10.70;7.10;;;;;;;22.62;100.00;99518.44;6112356;29;20198;-96
2023/07/12 00:37:16;;;;;;;10.13;6.88;;;;;;;22.59;100.00;99506.50;6111280;29;20538;-96
2023/07/12 00:40:41;;;;;;;8.40;6.63;;;;;;;22.67;100.00;99505.38;6124682;29;20048;-96
2023/07/12 00:44:02;;;;;;;9.07;7.38;;;;;;;22.69;100.00;99503.31;6108065;29;20047;-96
2023/07/12 00:47:13;;;;;;;9.88;7.50;;;;;;;22.76;100.00;99504.03;6105503;29;20083;-96
2023/07/12 00:50:27;;;;;;;10.35;7.40;;;;;;;22.80;100.00;99521.00;6104037;29;20049;-96
2023/07/12 00:53:39;;;;;;;19.23;7.18;;;;;;;22.79;100.00;99520.19;6130926;29;20050;-96
2023/07/12 00:57:18;;;;;;;11.75;7.20;;;;;;;22.81;100.00;99514.69;6118923;29;20048;-96
2023/07/12 01:01:02;;;;;;;8.68;7.32;;;;;;;22.88;100.00;99525.97;6105334;29;20052;-96
2023/07/12 01:04:21;;;;;;;9.40;6.75;;;;;;;22.93;100.00;99518.16;6117325;29;20059;-96
2023/07/12 01:07:38;;;;;;;9.68;7.00;;;;;;;23.05;100.00;99533.25;6149025;29;20056;-96
2023/07/12 01:11:23;;;;;;;9.45;7.00;;;;;;;23.22;100.00;99531.53;6143900;29;20104;-96
2023/07/12 01:18:25;;;;;;;8.65;7.43;;;;;;;23.39;100.00;99552.78;6635166;23;20128;-96
2023/07/12 01:22:05;;;;;;;8.98;7.25;;;;;;;23.63;100.00;99598.53;6559808;23;20060;-96
2023/07/12 01:25:13;;;;;;;10.35;6.80;;;;;;;24.01;100.00;99663.34;6130383;29;20122;-96
2023/07/12 01:28:19;;;;;;;8.98;6.40;;;;;;;24.05;100.00;99664.50;6112634;29;20488;-96
2023/07/12 01:31:26;;;;;;;9.90;6.60;;;;;;;23.97;100.00;99699.22;6122131;29;20130;-96
2023/07/12 01:34:29;;;;;;;9.43;6.03;;;;;;;23.62;100.00;99721.88;6116788;29;20427;-94
2023/07/12 01:37:31;;;;;;;10.73;5.90;;;;;;;22.90;100.00;99727.09;6114673;29;20215;-96
2023/07/12 01:40:34;;;;;;;8.55;5.93;;;;;;;21.75;100.00;99705.72;6117403;29;20047;-96
2023/07/12 01:43:39;;;;;;;9.40;6.50;;;;;;;21.06;100.00;99714.19;6111844;29;20043;-95
2023/07/12 01:46:42;;;;;;;8.95;5.90;;;;;;;20.70;100.00;99727.91;6094402;29;20058;-95
2023/07/12 01:49:44;;;;;;;13.40;6.38;;;;;;;20.42;100.00;99738.63;6114359;29;20529;-93
2023/07/12 01:52:47;;;;;;;7.75;6.03;;;;;;;20.47;100.00;99732.75;6114955;29;20055;-92
2023/07/12 01:55:49;;;;;;;10.07;6.47;;;;;;;20.58;100.00;99721.66;6113891;29;20115;-96
2023/07/12 01:58:52;;;;;;;11.02;6.43;;;;;;;20.61;100.00;99715.97;6096616;29;20422;-94
2023/07/12 02:01:54;;;;;;;10.60;6.85;;;;;;;20.54;100.00;99717.78;6106608;29;20139;-94
2023/07/12 02:04:56;;;;;;;10.18;6.75;;;;;;;20.50;100.00;99727.91;6116877;29;20063;-90
2023/07/12 02:07:59;;;;;;;9.13;6.03;;;;;;;20.42;100.00;99747.34;6108071;29;20044;-92
2023/07/12 02:11:01;;;;;;;10.52;6.72;;;;;;;20.34;100.00;99736.22;6097854;29;20788;-95
2023/07/12 02:14:03;;;;;;;8.80;5.68;;;;;;;20.27;100.00;99744.09;6115610;29;20055;-94
2023/07/12 02:17:06;;;;;;;9.57;5.80;;;;;;;20.20;100.00;99738.06;6111756;29;20043;-96
2023/07/12 02:20:09;;;;;;;12.63;6.55;;;;;;;20.15;100.00;99730.00;6104309;29;20064;-95
2023/07/12 02:23:12;;;;;;;10.18;6.05;;;;;;;20.09;100.00;99720.28;6115322;29;20050;-96
2023/07/12 02:26:14;;;;;;;7.72;5.82;;;;;;;20.07;100.00;99707.34;6108358;29;20075;-96
2023/07/12 02:29:16;;;;;;;11.38;6.55;;;;;;;20.03;100.00;99705.34;6116029;29;20052;-94
2023/07/12 02:32:20;;;;;;;7.32;5.80;;;;;;;20.04;100.00;99699.88;6114338;29;20194;-96
2023/07/12 02:35:31;;;;;;;7.50;5.85;;;;;;;20.03;100.00;99707.97;6112528;29;20111;-94
2023/07/12 02:38:34;;;;;;;8.85;5.95;;;;;;;19.99;100.00;99716.22;6114587;29;20055;-95
2023/07/12 02:41:36;;;;;;;6.97;5.38;;;;;;;20.00;100.00;99717.06;6115402;29;20047;-96
2023/07/12 02:44:39;;;;;;;8.20;5.53;;;;;;;20.00;100.00;99733.63;6114816;29;20040;-94
2023/07/12 02:47:41;;;;;;;6.82;5.25;;;;;;;20.01;100.00;99724.72;6112813;29;20525;-93
2023/07/12 02:50:43;;;;;;;8.73;5.05;;;;;;;19.99;100.00;99731.19;6113657;29;20048;-92
2023/07/12 02:53:45;;;;;;;9.02;5.32;;;;;;;19.99;100.00;99723.31;6111892;29;20044;-93
2023/07/12 02:56:47;;;;;;;7.10;5.38;;;;;;;20.00;100.00;99722.31;6107847;29;20046;-95
2023/07/12 02:59:49;;;;;;;6.75;4.97;;;;;;;19.98;100.00;99722.50;6110931;29;20127;-90
2023/07/12 03:02:52;;;;;;;8.48;4.95;;;;;;;19.89;100.00;99715.84;6114762;29;20047;-93
2023/07/12 03:05:54;;;;;;;8.45;4.78;;;;;;;19.88;100.00;99713.44;6116940;29;20877;-94
2023/07/12 03:08:56;;;;;;;6.25;4.60;;;;;;;19.81;100.00;99700.28;6117195;29;20663;-95
2023/07/12 03:11:58;;;;;;;7.40;4.75;;;;;;;19.83;100.00;99700.09;6115893;29;20498;-95
2023/07/12 03:15:00;;;;;;;5.50;4.18;;;;;;;19.83;100.00;99703.53;6119817;29;20047;-96
2023/07/12 03:18:05;;;;;;;4.82;4.20;;;;;;;19.79;100.00;99691.78;6100353;29;20170;-96
2023/07/12 03:21:09;;;;;;;5.05;4.03;;;;;;;19.73;100.00;99698.66;6103125;29;20051;-96
2023/07/12 03:24:13;;;;;;;4.82;3.92;;;;;;;19.77;100.00;99699.84;6107022;29;20475;-94
2023/07/12 03:27:16;;;;;;;7.72;3.70;;;;;;;19.76;100.00;99700.06;6114650;29;20146;-96
2023/07/12 03:30:18;;;;;;;5.15;3.28;;;;;;;19.72;100.00;99707.53;6120790;29;20055;-96
2023/07/12 03:33:20;;;;;;;5.82;3.38;;;;;;;19.79;100.00;99721.47;6119344;29;20455;-96
2023/07/12 03:36:28;;;;;;;5.85;3.13;;;;;;;19.86;100.00;99732.00;6115127;29;20036;-96
2023/07/12 03:39:30;;;;;;;5.13;2.90;;;;;;;19.90;100.00;99748.16;6109980;29;20040;-96
2023/07/12 03:42:33;;;;;;;4.40;2.80;;;;;;;19.97;100.00;99765.56;6124992;29;20055;-96
2023/07/12 03:45:36;;;;;;;7.78;2.90;;;;;;;20.01;100.00;99779.91;6109541;29;20267;-96
2023/07/12 03:48:41;;;;;;;2.92;2.58;;;;;;;20.03;100.00;99774.44;6091209;29;20045;-96
2023/07/12 03:51:45;;;;;;;5.30;2.65;;;;;;;20.04;100.00;99780.50;6126107;29;20060;-96
2023/07/12 03:54:51;;;;;;;2.78;2.50;;;;;;;20.01;100.00;99790.41;6134084;29;20047;-96
2023/07/12 03:57:59;;;;;;;4.07;2.40;;;;;;;20.03;100.00;99787.59;6144368;29;20059;-96
2023/07/12 04:01:25;;;;;;;;;;;;;;;20.20;100.00;99803.78;6135001;29;20059;-96
2023/07/12 04:04:30;;;;;;;2.70;2.33;;;;;;;20.33;100.00;99801.13;6109875;29;20095;-96
2023/07/12 04:07:35;;;;;;;2.58;2.17;;;;;;;20.43;100.00;99813.88;6128911;29;20046;-96
2023/07/12 04:10:43;;;;;;;3.80;2.38;;;;;;;20.49;100.00;99805.16;6137183;29;20056;-96
2023/07/12 04:13:51;;;;;;;3.10;2.47;;;;;;;20.58;100.00;99803.16;6139858;29;20043;-96
2023/07/12 04:17:37;;;;;;;5.65;2.65;;;;;;;20.73;100.00;99827.41;6143411;29;20051;-96
2023/07/12 04:20:52;;;;;;;3.42;2.47;;;;;;;20.81;100.00;99835.09;6126351;28;20063;-96
2023/07/12 04:23:54;;;;;;;6.30;2.95;;;;;;;20.95;100.00;99856.13;6152860;28;20024;-96
2023/07/12 04:27:02;;;;;;;6.00;2.60;;;;;;;20.94;100.00;99865.03;6144371;28;20054;-96
2023/07/12 04:34:11;;;;;;;3.28;2.03;;;;;;;20.86;100.00;99853.69;4493150;23;20051;-96
2023/07/12 04:37:50;;;;;;;3.45;1.92;;;;;;;20.92;100.00;99874.94;6133487;29;20159;-96
2023/07/12 04:40:55;;;;;;;3.58;2.00;;;;;;;20.98;100.00;99882.81;6142759;29;20047;-95
2023/07/12 04:43:57;;;;;;;2.53;1.92;;;;;;;20.99;100.00;99884.47;6142422;28;20133;-94
2023/07/12 04:47:02;;;;;;;2.40;2.13;;;;;;;21.04;100.00;99887.28;6132774;28;20047;-96
2023/07/12 04:50:08;;;;;;;2.10;1.70;;;;;;;21.24;100.00;99874.06;6119743;29;20040;-94
2023/07/12 04:53:12;;;;;;;3.45;1.55;;;;;;;21.46;100.00;99845.66;6128775;28;20043;-96
2023/07/12 04:56:15;;;;;;;2.05;1.20;;;;;;;21.62;100.00;99867.28;6125999;29;20468;-91
2023/07/12 04:59:21;;;;;;;2.35;1.40;;;;;;;21.58;100.00;99869.50;6126854;29;20057;-91
2023/07/12 05:02:22;;;;;;;2.70;1.40;;;;;;;21.45;100.00;99885.38;6119193;29;20039;-92
2023/07/12 05:05:25;;;;;;;3.03;1.40;;;;;;;21.31;100.00;99887.19;6119368;29;20687;-96
2023/07/12 05:08:27;;;;;;;1.73;1.35;;;;;;;21.31;100.00;99871.41;6118375;29;20123;-94
2023/07/12 05:11:30;;;;;;;2.83;1.25;;;;;;;21.02;100.00;99889.31;6136475;29;20428;-90
2023/07/12 05:14:31;;;;;;;1.75;1.10;;;;;;;20.82;100.00;99928.78;6120711;28;20051;-91
2023/07/12 05:17:35;;;;;;;2.83;1.30;;;;;;;20.84;100.00;99937.31;6118418;29;20059;-94
2023/07/12 05:20:37;;;;;;;3.17;1.30;;;;;;;20.94;100.00;99938.69;6118412;29;20551;-93
2023/07/12 05:23:39;;;;;;;1.92;1.33;;;;;;;21.23;100.00;99950.63;6121913;29;20585;-95
2023/07/12 05:26:42;;;;;;;3.95;1.42;;;;;;;21.35;100.00;99948.97;6139508;29;20047;-94
2023/07/12 05:29:44;;;;;;;1.48;1.38;;;;;;;21.33;100.00;99942.28;6107279;29;20746;-93
2023/07/12 05:32:45;;;;;;;2.13;1.23;;;;;;;21.25;100.00;99941.50;6117738;29;20113;-90
2023/07/12 05:35:48;;;;;;;2.15;1.25;;;;;;;21.25;100.00;99957.28;6116788;29;20059;-93
2023/07/12 05:38:50;;;;;;;2.95;1.40;;;;;;;21.32;100.00;99959.13;6102752;29;20052;-95
2023/07/12 05:41:52;;;;;;;1.75;1.20;;;;;;;21.29;100.00;99974.31;6109503;29;20258;-92
2023/07/12 05:44:54;;;;;;;2.38;1.00;;;;;;;21.21;100.00;99956.06;6115485;29;20059;-93
2023/07/12 05:47:56;;;;;;;2.63;1.20;;;;;;;21.21;100.00;99937.66;6116733;29;20048;-92
2023/07/12 05:51:00;;;;;;;3.22;1.20;;;;;;;21.03;100.00;99933.03;6104675;29;20055;-91
2023/07/12 05:54:02;;;;;;;1.20;1.10;;;;;;;20.93;100.00;99931.81;6102369;29;20063;-92
2023/07/12 05:57:05;;;;;;;1.63;1.23;;;;;;;20.92;100.00;99943.34;6115675;29;20541;-94
2023/07/12 06:00:09;;;;;;;3.47;1.38;;;;;;;20.95;100.00;99920.09;6123913;29;20501;-93
2023/07/12 06:03:11;;;;;;;1.40;1.27;;;;;;;21.06;100.00;99937.88;6120164;29;20717;-93
2023/07/12 06:06:14;;;;;;;2.38;1.20;;;;;;;21.20;100.00;99938.66;6118024;29;20050;-92
2023/07/12 06:09:16;;;;;;;2.72;1.10;;;;;;;21.43;100.00;99924.28;6116608;29;20170;-95
2023/07/12 06:12:18;;;;;;;2.45;1.20;;;;;;;21.76;100.00;99921.50;6115415;29;20040;-94
2023/07/12 06:15:20;;;;;;;1.60;1.10;;;;;;;22.00;100.00;99922.63;6138367;29;20035;-95
2023/07/12 06:18:23;;;;;;;2.35;1.10;;;;;;;22.27;100.00;99923.31;6127044;28;20118;-93
2023/07/12 06:21:25;;;;;;;1.55;1.20;;;;;;;22.35;100.00;99930.94;6128002;28;20036;-94
2023/07/12 06:24:28;;;;;;;1.50;1.10;;;;;;;22.28;100.00;99935.47;6107620;29;20040;-95
2023/07/12 06:27:30;;;;;;;3.15;1.00;;;;;;;22.30;100.00;99938.69;6108576;28;20048;-95
2023/07/12 06:30:33;;;;;;;1.55;1.00;;;;;;;22.34;100.00;99931.19;6122361;28;20084;-95
2023/07/12 06:33:38;;;;;;;2.10;1.20;;;;;;;22.34;100.00;99928.53;6115032;29;20060;-95
2023/07/12 06:36:41;;;;;;;3.00;1.20;;;;;;;22.39;100.00;99936.63;6118515;29;20509;-95
2023/07/12 06:39:44;;;;;;;1.63;0.95;;;;;;;22.31;100.00;99965.88;6117119;29;20044;-95
2023/07/12 06:42:47;;;;;;;1.20;0.80;;;;;;;22.08;100.00;99964.53;6128096;29;20090;-95
2023/07/12 06:45:50;;;;;;;0.70;0.70;;;;;;;22.03;100.00;99980.19;6122961;29;20047;-93
2023/07/12 06:48:52;;;;;;;3.03;0.98;;;;;;;22.05;100.00;99978.16;6128135;28;20047;-95
2023/07/12 06:51:57;;;;;;;1.08;0.98;;;;;;;22.21;100.00;99968.16;6130120;28;20542;-94
2023/07/12 06:54:59;;;;;;;0.90;0.77;;;;;;;22.34;100.00;99974.19;6113047;29;20130;-93
2023/07/12 06:58:01;;;;;;;1.40;0.80;;;;;;;22.31;100.00;99973.78;6135708;28;20056;-92
2023/07/12 07:01:08;;;;;;;2.22;0.80;;;;;;;21.38;100.00;99968.81;6117497;28;20539;-94
2023/07/12 07:04:11;;;;;;;1.08;0.70;;;;;;;21.06;100.00;99979.97;6115293;29;20035;-93
2023/07/12 07:07:13;;;;;;;1.42;0.70;;;;;;;20.91;100.00;99976.75;6094217;29;20055;-94
2023/07/12 07:10:15;;;;;;;2.38;0.70;;;;;;;20.93;100.00;99989.72;6120902;29;20039;-92
2023/07/12 07:13:17;;;;;;;1.10;0.70;;;;;;;20.97;100.00;99997.00;6132089;28;20068;-93
2023/07/12 07:16:20;;;;;;;0.60;0.57;;;;;;;21.16;100.00;100000.63;6127888;29;20791;-94
2023/07/12 07:19:23;;;;;;;1.92;0.65;;;;;;;21.23;100.00;100013.78;6117233;29;20048;-91
2023/07/12 07:22:25;;;;;;;1.42;0.68;;;;;;;21.31;100.00;100018.84;6129853;28;20112;-95
2023/07/12 07:25:28;;;;;;;1.95;0.60;;;;;;;21.36;100.00;100028.75;6117243;29;20559;-91
2023/07/12 07:28:31;;;;;;;1.85;0.90;;;;;;;21.35;100.00;100029.78;6127977;29;20062;-94
2023/07/12 07:31:33;;;;;;;2.88;0.95;;;;;;;21.49;100.00;100031.44;6115768;29;20192;-92
2023/07/12 07:34:35;;;;;;;2.10;0.90;;;;;;;21.49;100.00;100036.69;6115206;29;20058;-94
2023/07/12 07:37:38;;;;;;;1.00;0.60;;;;;;;21.49;100.00;100048.03;6118290;29;20051;-93
2023/07/12 07:40:40;;;;;;;2.28;0.82;;;;;;;21.45;100.00;100052.09;6116543;29;20525;-95
2023/07/12 07:43:44;;;;;;;1.08;0.73;;;;;;;21.54;100.00;100036.88;6117844;29;20075;-95
2023/07/12 07:46:47;;;;;;;2.40;0.80;;;;;;;21.61;100.00;100044.75;6118972;29;20043;-96
2023/07/12 07:49:50;;;;;;;1.38;0.75;;;;;;;21.64;100.00;100052.25;6121368;29;20328;-94
2023/07/12 07:52:53;;;;;;;0.98;0.68;;;;;;;21.71;100.00;100045.97;6101715;29;20517;-94
2023/07/12 07:55:55;;;;;;;1.45;0.50;;;;;;;22.66;100.00;100058.63;6124536;29;20074;-96
2023/07/12 07:58:57;;;;;;;2.20;0.70;;;;;;;22.95;100.00;100072.22;6124178;29;20036;-96
2023/07/12 08:02:03;;;;;;;0.95;0.60;;;;;;;23.20;100.00;100059.06;6135090;29;20079;-96
2023/07/12 08:05:05;;;;;;;1.50;0.60;;;;;;;23.37;100.00;100068.06;6143312;29;20054;-96
2023/07/12 08:08:08;;;;;;;0.90;0.70;;;;;;;23.39;100.00;100067.84;6137294;29;20050;-95
2023/07/12 08:11:10;;;;;;;0.75;0.60;;;;;;;23.21;100.00;100074.72;6153773;28;20047;-96
2023/07/12 08:14:20;;;;;;;2.22;0.60;;;;;;;22.99;100.00;100078.72;6132288;28;20048;-96
2023/07/12 08:17:23;;;;;;;2.45;1.00;;;;;;;22.66;100.00;100115.81;6130663;29;20086;-96
2023/07/12 08:20:25;;;;;;;2.05;0.73;;;;;;;22.31;100.00;100098.53;6145988;29;20051;-94
2023/07/12 08:23:30;;;;;;;1.13;0.80;;;;;;;22.14;100.00;100105.25;6122978;29;20036;-93
2023/07/12 08:26:32;;;;;;;2.15;1.10;;;;;;;22.18;100.00;100100.38;6124610;29;20039;-95
2023/07/12 08:29:34;;;;;;;2.75;1.83;;;;;;;22.20;100.00;100090.47;6121731;29;20044;-96
2023/07/12 08:32:38;;;;;;;2.88;1.85;;;;;;;22.38;100.00;100109.06;6130683;29;20194;-93
2023/07/12 08:35:41;;;;;;;1.75;1.65;;;;;;;22.40;100.00;100096.47;6139405;28;20055;-96
2023/07/12 08:38:51;;;;;;;2.95;1.90;;;;;;;22.49;100.00;100099.69;6121314;29;20039;-92
2023/07/12 08:41:54;;;;;;;2.00;1.80;;;;;;;22.58;100.00;100116.88;6121790;29;20055;-91
2023/07/12 08:44:58;;;;;;;3.50;2.13;;;;;;;22.45;100.00;100096.66;6122266;29;20449;-95
2023/07/12 08:48:08;;;;;;;2.40;2.20;;;;;;;22.51;100.00;100098.47;6121987;29;20040;-96
2023/07/12 08:51:27;;;;;;;2.40;2.20;;;;;;;22.60;100.00;100106.94;6111814;29;20054;-93
2023/07/12 08:54:34;;;;;;;2.40;2.20;;;;;;;22.65;100.00;100107.09;6113373;29;20044;-96
2023/07/12 08:57:41;;;;;;;4.03;2.38;;;;;;;22.51;100.00;100093.19;6108750;29;20052;-95
2023/07/12 09:00:47;;;;;;;4.25;2.05;;;;;;;22.34;100.00;100107.88;6100873;29;20083;-95
2023/07/12 09:04:12;;;;;;;2.08;1.98;;;;;;;22.42;100.00;100101.53;6120377;29;20048;-96
2023/07/12 09:07:26;;;;;;;4.25;2.10;;;;;;;22.83;100.00;100105.59;6100650;29;20407;-96
2023/07/12 09:10:39;;;;;;;3.55;2.42;;;;;;;22.96;100.00;100095.78;6091625;29;20535;-94
2023/07/12 09:13:49;;;;;;;3.90;2.17;;;;;;;23.08;100.00;100092.47;6122065;29;20050;-94
2023/07/12 09:16:59;;;;;;;2.20;1.98;;;;;;;22.95;100.00;100096.78;6123752;29;20043;-95
2023/07/12 09:20:17;;;;;;;2.83;1.80;;;;;;;22.44;100.00;100094.25;6121606;28;20052;-92
2023/07/12 09:23:22;;;;;;;2.92;2.05;;;;;;;22.86;100.00;100090.16;6103658;29;20146;-95
2023/07/12 09:26:28;;;;;;;1.80;1.67;;;;;;;22.90;100.00;100093.16;6113997;29;20043;-94
2023/07/12 09:29:41;;;;;;;2.58;1.70;;;;;;;22.91;100.00;100090.34;6133776;28;20084;-95
2023/07/12 09:32:51;;;;;;;1.88;1.77;;;;;;;22.70;100.00;100085.38;6120970;29;20058;-96
2023/07/12 09:36:00;;;;;;;2.03;1.60;;;;;;;22.79;100.00;100098.09;6125000;29;20044;-95
2023/07/12 09:39:10;;;;;;;1.67;1.58;;;;;;;23.14;100.00;100100.34;6141518;28;20474;-96
2023/07/12 09:42:14;;;;;;;3.08;1.60;;;;;;;23.30;100.00;100088.44;6128788;29;20043;-96
2023/07/12 09:45:18;;;;;;;1.88;1.77;;;;;;;23.60;100.00;100088.59;6130200;29;20135;-96
2023/07/12 09:48:38;;;;;;;2.17;1.98;;;;;;;23.39;100.00;100094.28;6129688;29;20528;-95
2023/07/12 09:52:00;;;;;;;1.98;1.73;;;;;;;22.75;100.00;100086.34;6117689;29;20417;-94
2023/07/12 09:55:22;;;;;;;1.70;1.60;;;;;;;22.95;100.00;100096.78;6127360;29;20075;-95
2023/07/12 09:58:51;;;;;;;3.92;1.70;;;;;;;22.96;100.00;100100.25;6137469;29;20051;-96
2023/07/12 10:02:37;;;;;;;3.67;1.63;;;;;;;22.96;100.00;100110.81;6094632;29;20040;-96
2023/07/12 10:06:20;;;;;;;2.58;1.80;;;;;;;22.76;100.00;100105.66;6031827;29;20519;-96
2023/07/12 10:09:37;;;;;;;2.30;1.50;;;;;;;22.85;100.00;100109.63;6067930;29;20062;-93
2023/07/12 10:12:51;;;;;;;1.83;1.40;;;;;;;22.80;100.00;100112.09;6122860;29;20054;-95
2023/07/12 10:16:34;;;;;;;2.13;1.60;;;;;;;23.04;100.00;100099.22;6138504;28;20047;-96
2023/07/12 10:19:55;;;;;;;1.80;1.70;;;;;;;23.75;100.00;100101.50;6054263;29;20146;-96
2023/07/12 10:23:19;;;;;;;2.05;1.45;;;;;;;24.28;100.00;100095.63;6136851;29;20035;-96
2023/07/12 10:26:27;;;;;;;3.67;1.30;;;;;;;24.67;100.00;100104.13;6124636;29;20631;-96
2023/07/12 10:29:48;;;;;;;3.00;1.48;;;;;;;24.15;100.00;100103.72;6132570;29;20107;-95
2023/07/12 10:32:58;;;;;;;4.63;1.30;;;;;;;23.75;100.00;100109.44;6130113;29;20124;-96
2023/07/12 10:36:16;;;;;;;;;;;;;;;23.70;100.00;100111.91;6133695;29;20051;-96
2023/07/12 10:39:34;;;;;;;1.38;1.27;;;;;;;23.85;100.00;100108.94;6124052;28;19974;-96
2023/07/12 10:42:56;;;;;;;2.72;1.33;;;;;;;24.13;100.00;100134.06;6123839;29;20127;-92
2023/07/12 10:46:32;;;;;;;2.05;1.20;;;;;;;24.31;100.00;100110.25;6132888;29;20047;-96
2023/07/12 10:50:01;;;;;;;2.72;1.20;;;;;;;24.72;100.00;100119.34;6130845;29;20036;-96
2023/07/12 10:53:25;;;;;;;4.13;1.20;;;;;;;24.96;100.00;100117.56;6132548;29;20119;-96
2023/07/12 10:56:53;;;;;;;1.20;1.10;;;;;;;25.13;100.00;100136.28;6128931;29;20047;-96
2023/07/12 11:00:12;;;;;;;2.00;1.20;;;;;;;24.82;100.00;100134.66;6124664;29;20051;-96
2023/07/12 11:03:34;;;;;;;1.45;0.90;;;;;;;24.59;100.00;100128.25;6131321;29;20048;-96
2023/07/12 11:07:00;;;;;;;3.15;1.70;;;;;;;24.78;100.00;100134.31;6136670;29;20043;-95
2023/07/12 11:10:24;;;;;;;1.88;1.20;;;;;;;24.87;100.00;100143.56;6130670;29;20063;-96
2023/07/12 11:13:34;;;;;;;1.90;1.27;;;;;;;25.01;100.00;100149.47;6142558;28;20121;-94
2023/07/12 11:16:44;;;;;;;2.42;1.20;;;;;;;24.81;100.00;100151.59;6143625;29;20043;-96
2023/07/12 11:20:08;;;;;;;1.73;1.20;;;;;;;24.63;100.00;100149.81;6143061;29;20047;-96
2023/07/12 11:23:38;;;;;;;3.10;1.20;;;;;;;24.66;100.00;100146.69;6299317;23;20051;-96
2023/07/12 11:26:55;;;;;;;7.32;1.83;;;;;;;24.23;100.00;100145.75;6128317;28;20087;-95
2023/07/12 11:34:23;;;;;;;3.53;1.55;;;;;;;24.88;100.00;100152.31;6102391;29;20052;-96
2023/07/12 11:37:52;;;;;;;2.80;1.30;;;;;;;25.32;100.00;100139.69;6077646;29;20104;-96
2023/07/12 11:41:19;;;;;;;1.80;1.17;;;;;;;25.58;100.00;100146.41;6094115;29;20088;-96
2023/07/12 11:44:26;;;;;;;4.78;1.30;;;;;;;25.70;100.00;100155.16;6077022;29;20053;-96
2023/07/12 11:47:52;;;;;;;5.03;1.40;;;;;;;25.54;100.00;100150.56;6106456;29;20491;-96
2023/07/12 11:51:36;;;;;;;1.90;1.70;;;;;;;25.51;100.00;100151.00;6213622;23;20100;31
2023/07/12 11:54:47;;;;;;;4.43;1.30;;;;;;;25.54;100.00;100150.56;6084889;29;20048;-96
2023/07/12 11:57:52;;;;;;;3.88;1.50;;;;;;;25.61;100.00;100153.88;6081806;29;20615;-94
2023/07/12 12:08:26;;;;;;;4.00;1.30;;;;;;;26.09;100.00;100160.03;6551024;23;20059;-95
2023/07/12 12:11:30;;;;;;;4.10;1.38;;;;;;;25.82;100.00;100154.38;6151766;28;20059;-96
2023/07/12 12:14:51;;;;;;;3.50;1.40;;;;;;;26.00;100.00;100146.31;6158989;28;20031;-96
2023/07/12 12:18:13;;;;;;;2.30;1.35;;;;;;;26.34;95.89;100157.13;6124545;28;20394;-95
2023/07/12 12:21:25;;;;;;;1.83;1.25;;;;;;;26.38;100.00;100152.94;6153444;28;20057;-96
2023/07/12 12:24:40;;;;;;;4.53;1.40;;;;;;;26.86;100.00;100154.44;6174941;23;20031;-96
2023/07/12 12:27:45;;;;;;;2.67;1.30;;;;;;;27.24;97.54;100145.03;6225698;23;20246;-96
2023/07/12 12:30:57;;;;;;;1.63;1.20;;;;;;;27.26;92.97;100151.69;6154295;28;20043;-96
2023/07/12 12:34:38;;;;;;;2.88;1.50;;;;;;;27.46;88.56;100139.78;6144898;28;20067;-96
2023/07/12 12:38:05;;;;;;;2.03;1.45;;;;;;;27.48;77.06;100151.78;6145625;28;20043;-96
2023/07/12 12:41:21;;;;;;;4.90;1.30;;;;;;;27.75;77.68;100150.31;6171950;28;20122;-96
2023/07/12 12:45:02;;;;;;;1.85;1.30;;;;;;;28.27;74.31;100137.47;6155715;28;20046;-96
2023/07/12 12:48:52;;;;;;;5.57;1.42;;;;;;;28.37;79.03;100142.09;6157068;28;20497;-96
2023/07/12 12:52:27;;;;;;;3.40;1.38;;;;;;;28.11;80.22;100143.66;6134074;28;20106;-96
2023/07/12 12:56:02;;;;;;;2.00;1.33;;;;;;;28.22;78.85;100150.69;6162373;28;20047;-96
2023/07/12 12:59:40;;;;;;;2.67;1.40;;;;;;;28.20;74.48;100152.84;6144914;28;20047;-96
2023/07/12 13:02:46;;;;;;;2.88;1.30;;;;;;;27.85;75.12;100153.13;6128994;28;20039;-96
2023/07/12 13:09:48;;;;;;;2.67;1.27;;;;;;;27.78;74.90;100168.47;4144669;23;20052;-96
2023/07/12 13:12:55;;;;;;;2.97;1.38;;;;;;;27.95;64.37;100137.34;6127782;29;20036;-95
2023/07/12 13:16:40;;;;;;;;;;;;;;;;;;;;;
2023/07/12 13:20:10;;;;;;;4.18;1.38;;;;;;;28.69;65.46;100168.06;6121503;29;20059;-96
2023/07/12 13:24:03;;;;;;;3.17;1.60;;;;;;;28.14;70.79;100153.81;3628851;23;20059;-96
2023/07/12 13:31:44;;;;;;;3.72;1.33;;;;;;;28.15;79.29;100144.78;6097492;29;20052;-96
2023/07/12 13:35:00;;;;;;;2.67;1.35;;;;;;;28.63;69.67;100158.41;6063657;29;20061;-92
2023/07/12 13:38:11;;;;;;;1.33;0.95;;;;;;;28.81;66.92;100160.72;6039621;29;20082;-93
2023/07/12 13:41:25;;;;;;;4.43;1.48;;;;;;;28.82;59.70;100180.19;6041525;29;20430;-96
2023/07/12 13:44:51;;;;;;;2.60;1.20;;;;;;;28.58;59.06;100174.34;6043725;29;20052;-95
2023/07/12 13:48:10;;;;;;;3.60;1.35;;;;;;;28.54;60.88;100174.81;6040710;29;20411;-95
2023/07/12 13:51:30;;;;;;;3.95;1.33;;;;;;;28.52;71.07;100178.78;6047737;29;20100;-94
2023/07/12 13:55:14;;;;;;;1.77;1.08;;;;;;;28.41;67.79;100180.50;3526475;23;20065;-92
2023/07/12 13:58:37;;;;;;;2.92;1.35;;;;;;;27.92;66.61;100175.88;6142604;28;20548;-96
2023/07/12 14:02:23;;;;;;;4.43;1.40;;;;;;;28.11;69.15;100184.38;6143317;28;20058;-96
2023/07/12 14:05:45;;;;;;;3.83;1.20;;;;;;;28.56;59.54;100172.72;6132554;29;20035;-96
2023/07/12 14:10:14;;;;;;;2.70;1.00;;;;;;;28.52;62.93;100171.63;6081559;29;20052;-96
2023/07/12 14:13:48;;;;;;;3.65;1.55;;;;;;;28.55;61.16;100181.78;6006408;29;20524;-96
2023/07/12 14:16:51;;;;;;;5.25;1.52;;;;;;;28.73;55.37;100191.28;6017096;29;20111;-95
2023/07/12 14:24:32;;;;;;;2.63;1.05;;;;;;;28.85;58.91;100177.03;6015700;29;20078;-96
2023/07/12 14:27:44;;;;;;;2.30;1.08;;;;;;;28.14;59.50;100181.22;6012763;29;20063;-94
2023/07/12 14:31:53;;;;;;;3.63;1.10;;;;;;;27.42;72.84;100168.69;6034087;29;20109;-96
2023/07/12 14:35:14;;;;;;;;;;;;;;;28.17;74.81;100158.63;6041519;23;20106;-96
2023/07/12 15:05:53;;;;;;;3.08;1.33;;;;;;;28.89;59.31;100152.28;7748724;22;2527583;-96
2023/07/12 15:17:38;;;;;;;1.83;1.02;;;;;;;29.02;54.38;100161.75;7762794;22;20028;-96
2023/07/12 15:30:28;;;;;;;1.73;1.10;;;;;;;29.19;52.45;100153.63;7762264;23;20058;-96
2023/07/12 15:34:13;;;;;;;2.28;1.00;;;;;;;29.29;50.05;100172.41;7784646;22;20098;-95
2023/07/12 15:37:32;;;;;;;2.17;1.02;;;;;;;29.10;51.08;100155.97;7793831;22;20363;-96
2023/07/12 15:45:30;;;;;;;3.45;1.00;;;;;;;29.24;51.64;100158.22;7795375;22;20027;-95
2023/07/12 15:48:34;;;;;;;1.77;1.10;;;;;;;29.14;52.55;100153.59;7791264;22;20036;-93
2023/07/12 15:51:39;;;;;;;3.05;1.25;;;;;;;29.50;50.01;100151.22;7764566;22;20034;-94
2023/07/12 15:54:42;;;;;;;1.95;1.27;;;;;;;29.81;51.07;100153.06;7791129;22;20509;-95
2023/07/12 15:57:45;;;;;;;0.88;0.88;;;;;;;30.22;47.76;100157.81;7792642;22;20022;-95
2023/07/12 16:00:53;;;;;;;3.47;1.30;;;;;;;30.22;47.18;100161.28;7742278;22;20026;-95
2023/07/12 16:04:04;;;;;;;3.13;1.40;;;;;;;30.40;48.39;100157.38;7761155;22;20030;-96
2023/07/12 16:07:12;;;;;;;2.72;1.08;;;;;;;30.29;45.96;100161.06;7759736;22;20026;-95
2023/07/12 16:10:27;;;;;;;1.55;1.00;;;;;;;28.99;50.76;100163.06;7789054;22;20019;-96
2023/07/12 16:13:35;;;;;;;1.75;1.10;;;;;;;27.88;55.44;100165.97;7750775;22;20027;-96